Time;durP1;ratioP1;P1;durP2;ratioP2;P2;SDS_P1;SDS_P2;PMS_P1;PMS_P2;Temp;Humidity;BMP_temperature;BMP_pressure;BME280_temperature;BME280_humidity;BME280_pressure;Samples;Min_cycle;Max_cycle;Signal;HPM_P1;HPM_P2
2021/08/01 00:00:06;;;;;;;12.60;8.10;;;;;;;17.11;90.57;94170.27;1811647;79;20991;-56
2021/08/01 00:02:36;;;;;;;17.37;8.03;;;;;;;17.11;90.54;94173.05;1779848;79;20979;-58
2021/08/01 00:05:04;;;;;;;14.45;9.05;;;;;;;17.11;90.48;94171.66;1754595;81;21790;-56
2021/08/01 00:07:34;;;;;;;16.77;9.15;;;;;;;17.12;90.37;94176.60;1754512;81;20935;-56
2021/08/01 00:10:04;;;;;;;12.18;7.85;;;;;;;17.06;90.24;94177.23;1754360;81;20955;-56
2021/08/01 00:12:32;;;;;;;13.62;8.00;;;;;;;16.99;90.36;94165.20;1754634;81;20955;-57
2021/08/01 00:14:58;;;;;;;9.68;7.03;;;;;;;16.96;90.61;94166.20;1754842;81;21042;-57
2021/08/01 00:17:27;;;;;;;13.28;7.60;;;;;;;16.94;90.69;94168.73;1754685;81;21116;-57
2021/08/01 00:19:54;;;;;;;8.75;6.30;;;;;;;16.90;90.91;94164.05;1754470;80;20986;-57
2021/08/01 00:22:21;;;;;;;7.10;6.40;;;;;;;16.89;91.41;94167.45;1786540;80;21195;-57
2021/08/01 00:24:48;;;;;;;12.60;7.03;;;;;;;16.88;91.22;94155.47;1758900;81;21045;-58
2021/08/01 00:27:16;;;;;;;9.10;6.40;;;;;;;16.85;91.31;94157.22;1786348;80;21050;-55
2021/08/01 00:29:42;;;;;;;7.37;5.33;;;;;;;16.84;91.18;94159.09;1759759;80;22144;-57
2021/08/01 00:32:09;;;;;;;10.43;6.97;;;;;;;16.82;91.00;94156.83;1758635;81;21089;-56
2021/08/01 00:34:36;;;;;;;12.78;8.30;;;;;;;16.83;91.31;94159.73;1786603;80;21583;-56
2021/08/01 00:37:04;;;;;;;11.12;8.10;;;;;;;16.86;91.85;94173.23;1759044;81;20986;-57
2021/08/01 00:39:32;;;;;;;10.05;6.33;;;;;;;16.88;92.15;94172.88;1786316;80;20993;-58
2021/08/01 00:41:58;;;;;;;6.50;5.80;;;;;;;16.91;91.80;94161.41;1755653;80;21132;-55
2021/08/01 00:44:25;;;;;;;16.07;7.10;;;;;;;16.97;91.09;94166.33;1781564;78;21046;-56
2021/08/01 00:46:53;;;;;;;10.95;6.17;;;;;;;16.99;90.89;94161.03;1786946;80;21519;-57
2021/08/01 00:49:20;;;;;;;9.68;6.42;;;;;;;17.00;90.98;94159.77;1787084;80;21031;-56
2021/08/01 00:51:48;;;;;;;8.68;6.25;;;;;;;16.97;90.25;94163.55;1775894;80;21542;-57
2021/08/01 00:54:15;;;;;;;10.50;5.40;;;;;;;16.89;89.63;94168.09;1791753;80;21625;-56
2021/08/01 00:56:43;;;;;;;11.95;6.92;;;;;;;16.82;89.68;94165.78;1794596;78;20972;-56
2021/08/01 00:59:10;;;;;;;9.25;6.60;;;;;;;16.80;89.66;94164.14;1794726;78;21090;-56
2021/08/01 01:01:58;;;;;;;11.75;6.87;;;;;;;16.71;89.75;94166.52;1794486;78;20944;-57
2021/08/01 01:04:40;;;;;;;7.28;6.22;;;;;;;16.63;90.11;94167.48;1767455;81;21020;-57
2021/08/01 01:07:12;;;;;;;;;;;;;;;16.58;90.50;94167.59;1760760;81;21920;-57
2021/08/01 01:10:05;;;;;;;8.33;6.00;;;;;;;16.54;90.14;94163.56;1758074;81;20520;-57
2021/08/01 01:12:49;;;;;;;9.90;7.28;;;;;;;16.47;90.44;94162.63;1765631;81;21064;-56
2021/08/01 01:15:22;;;;;;;9.48;7.75;;;;;;;16.48;90.41;94164.14;1769761;79;21059;-56
2021/08/01 01:17:52;;;;;;;10.55;5.85;;;;;;;16.44;90.27;94178.28;1769839;79;20961;-57
2021/08/01 01:20:35;;;;;;;9.45;6.80;;;;;;;16.41;90.29;94174.34;1769524;80;21149;-57
2021/08/01 01:23:37;;;;;;;13.70;7.30;;;;;;;16.36;90.49;94171.67;1769355;81;20969;-56
2021/08/01 01:26:26;;;;;;;10.38;7.35;;;;;;;16.34;91.01;94174.80;1768841;81;20988;-56
2021/08/01 01:29:11;;;;;;;10.13;6.47;;;;;;;16.31;91.39;94175.77;1767278;79;21462;-57
2021/08/01 01:31:56;;;;;;;11.22;5.45;;;;;;;16.27;91.47;94182.20;1825797;78;20981;-57
2021/08/01 01:34:31;;;;;;;9.60;5.75;;;;;;;16.22;91.50;94189.10;1826013;78;21128;-56
2021/08/01 01:37:00;;;;;;;8.55;5.50;;;;;;;16.14;91.53;94187.44;1826059;78;20935;-56
2021/08/01 01:39:29;;;;;;;11.18;6.92;;;;;;;16.07;91.62;94180.95;1825834;78;21002;-55
2021/08/01 01:42:00;;;;;;;9.75;7.30;;;;;;;16.07;92.23;94179.56;1753363;79;21084;-56
2021/08/01 01:44:29;;;;;;;9.73;6.85;;;;;;;16.15;92.49;94188.19;1773736;80;21041;-56
2021/08/01 01:46:57;;;;;;;8.70;5.80;;;;;;;16.20;92.22;94190.23;1775253;80;21134;-58
2021/08/01 01:49:24;;;;;;;10.00;6.28;;;;;;;16.27;92.07;94194.69;1775237;79;21535;-57
2021/08/01 01:51:54;;;;;;;12.33;5.95;;;;;;;16.30;91.88;94190.91;1774325;79;21410;-57
2021/08/01 01:54:22;;;;;;;7.53;6.37;;;;;;;16.37;91.99;94197.44;1774994;80;20984;-55
2021/08/01 01:56:50;;;;;;;8.45;6.33;;;;;;;16.39;91.76;94199.08;1774900;79;21001;-56
2021/08/01 01:59:18;;;;;;;9.73;6.20;;;;;;;16.38;91.92;94191.37;1774651;80;21127;-58
2021/08/01 02:01:45;;;;;;;12.47;7.12;;;;;;;16.45;92.00;94196.47;1774960;80;21481;-57
2021/08/01 02:04:12;;;;;;;9.18;6.20;;;;;;;16.53;91.77;94195.36;1774655;80;20977;-56
2021/08/01 02:06:59;;;;;;;13.48;7.33;;;;;;;16.61;91.45;94200.56;1774675;80;20989;-56
2021/08/01 02:09:39;;;;;;;8.98;6.95;;;;;;;16.60;91.09;94193.48;1751205;78;21028;-56
2021/08/01 02:12:24;;;;;;;9.70;6.20;;;;;;;16.58;90.71;94199.53;1826219;78;21920;-56
2021/08/01 02:15:17;;;;;;;10.35;6.55;;;;;;;16.51;90.10;94197.88;1810342;78;20911;-56
2021/08/01 02:17:57;;;;;;;10.40;6.28;;;;;;;16.46;90.17;94195.82;1829121;78;20973;-57
2021/08/01 02:20:31;;;;;;;12.60;7.20;;;;;;;16.44;90.05;94199.73;1828365;77;21514;-57
2021/08/01 02:23:26;;;;;;;12.30;6.75;;;;;;;16.39;90.00;94199.08;1828457;78;20962;-59
2021/08/01 02:25:54;;;;;;;15.75;7.20;;;;;;;16.37;89.94;94191.88;1828714;78;21180;-58
2021/08/01 02:28:23;;;;;;;8.93;7.22;;;;;;;16.33;90.10;94202.44;1828325;78;20931;-55
2021/08/01 02:30:51;;;;;;;10.60;6.60;;;;;;;16.36;90.48;94202.86;1828341;77;20946;-56
2021/08/01 02:33:18;;;;;;;13.22;6.83;;;;;;;16.40;90.46;94213.09;1828514;78;20975;-57
2021/08/01 02:35:45;;;;;;;9.98;6.97;;;;;;;16.39;90.23;94214.35;1828691;78;20966;-56
2021/08/01 02:38:13;;;;;;;9.95;6.37;;;;;;;16.37;90.62;94208.53;1828840;78;21442;-56
2021/08/01 02:40:40;;;;;;;9.68;5.70;;;;;;;16.36;90.29;94211.92;1819073;78;20954;-56
2021/08/01 02:43:10;;;;;;;7.67;6.42;;;;;;;16.37;90.33;94211.31;1806506;79;21040;-56
2021/08/01 02:45:42;;;;;;;8.88;6.53;;;;;;;16.39;90.29;94211.57;1806413;79;21493;-56
2021/08/01 02:48:10;;;;;;;8.43;6.15;;;;;;;16.41;90.42;94222.94;1806917;79;20994;-55
2021/08/01 02:50:41;;;;;;;9.75;5.78;;;;;;;16.41;90.15;94229.27;1806218;79;21009;-56
2021/08/01 02:53:10;;;;;;;13.30;6.05;;;;;;;16.39;89.97;94231.01;1818955;78;21029;-55
2021/08/01 02:55:38;;;;;;;7.25;5.22;;;;;;;16.38;90.09;94225.33;1821552;78;21007;-56
2021/08/01 02:58:05;;;;;;;8.00;5.65;;;;;;;16.37;89.97;94227.97;1804656;79;21513;-56
2021/08/01 03:00:35;;;;;;;7.10;6.00;;;;;;;16.32;89.87;94228.03;1804337;79;21088;-57
2021/08/01 03:03:06;;;;;;;9.48;5.75;;;;;;;16.29;90.05;94235.97;1804305;79;21133;-57
2021/08/01 03:05:33;;;;;;;11.97;5.83;;;;;;;16.28;90.28;94239.23;1746225;80;21564;-56
2021/08/01 03:08:00;;;;;;;11.00;5.42;;;;;;;16.21;90.38;94235.54;1767669;80;21016;-56
2021/08/01 03:10:27;;;;;;;10.72;5.37;;;;;;;16.16;90.85;94244.59;1829235;77;21659;-55
2021/08/01 03:12:54;;;;;;;10.48;5.53;;;;;;;16.18;90.80;94249.64;1821585;78;20926;-55
2021/08/01 03:15:23;;;;;;;8.75;5.67;;;;;;;16.16;90.81;94243.21;1776357;78;21164;-57
2021/08/01 03:17:51;;;;;;;9.60;5.83;;;;;;;16.16;90.96;94245.21;1798082;79;20978;-56
2021/08/01 03:20:19;;;;;;;5.60;4.65;;;;;;;16.17;90.92;94248.89;1793999;80;20989;-58
2021/08/01 03:22:47;;;;;;;6.55;5.33;;;;;;;16.14;90.81;94248.50;1793515;79;21042;-58
2021/08/01 03:25:14;;;;;;;7.90;5.60;;;;;;;16.08;90.81;94245.55;1794111;80;21033;-56
2021/08/01 03:27:41;;;;;;;9.85;6.05;;;;;;;16.04;90.88;94247.16;1797362;79;21908;-56
2021/08/01 03:30:11;;;;;;;9.43;6.60;;;;;;;16.07;90.95;94251.72;1793807;79;21048;-57
2021/08/01 03:32:38;;;;;;;7.42;5.58;;;;;;;16.12;90.89;94248.85;1772966;79;21501;-56
2021/08/01 03:35:07;;;;;;;10.45;6.17;;;;;;;16.18;90.53;94250.41;1790629;80;21087;-56
2021/08/01 03:37:36;;;;;;;6.85;4.70;;;;;;;16.23;90.20;94251.69;1796884;79;21022;-56
2021/08/01 03:40:22;;;;;;;8.93;5.55;;;;;;;16.25;90.16;94261.69;1785573;80;21158;-57
2021/08/01 03:42:49;;;;;;;8.75;6.50;;;;;;;16.21;90.12;94263.91;1812781;77;20973;-56
2021/08/01 03:45:15;;;;;;;13.08;7.08;;;;;;;16.19;90.47;94268.59;1812983;79;20954;-56
2021/08/01 03:47:42;;;;;;;8.68;6.67;;;;;;;16.21;90.66;94268.07;1812532;79;20937;-56
2021/08/01 03:50:12;;;;;;;10.05;6.50;;;;;;;16.20;90.44;94268.72;1812451;79;20993;-56
2021/08/01 03:52:39;;;;;;;9.75;5.75;;;;;;;16.20;90.58;94277.66;1812353;79;21148;-57
2021/08/01 03:55:07;;;;;;;9.83;6.08;;;;;;;16.25;90.72;94281.86;1812898;77;20922;-56
2021/08/01 03:57:34;;;;;;;9.88;6.35;;;;;;;16.31;90.52;94279.27;1813075;79;21393;-57
2021/08/01 04:00:06;;;;;;;13.80;6.58;;;;;;;16.34;90.17;94273.36;1812679;79;20992;-56
2021/08/01 04:02:37;;;;;;;7.40;6.40;;;;;;;16.38;90.00;94275.30;1811824;79;21040;-57
2021/08/01 04:05:08;;;;;;;9.68;5.75;;;;;;;16.38;89.80;94268.36;1811947;79;21310;-56
2021/08/01 04:07:36;;;;;;;9.80;5.62;;;;;;;16.38;90.13;94271.88;1812525;79;20983;-56
2021/08/01 04:10:05;;;;;;;8.25;5.15;;;;;;;16.44;90.21;94278.25;1812712;79;21442;-56
2021/08/01 04:12:33;;;;;;;7.37;5.75;;;;;;;16.54;90.25;94282.33;1812482;77;20942;-58
2021/08/01 04:15:02;;;;;;;16.48;6.80;;;;;;;16.56;90.16;94290.92;1812947;77;21115;-57
2021/08/01 04:17:33;;;;;;;6.50;5.78;;;;;;;16.59;90.44;94285.78;1813898;78;21050;-58
2021/08/01 04:20:00;;;;;;;6.37;5.10;;;;;;;16.67;90.54;94291.00;1812669;79;20963;-57
2021/08/01 04:22:27;;;;;;;7.33;5.72;;;;;;;16.74;90.32;94298.11;1812841;79;21548;-58
2021/08/01 04:24:54;;;;;;;13.38;5.92;;;;;;;16.73;90.08;94305.66;1812371;77;21013;-57
2021/08/01 04:27:20;;;;;;;8.43;6.40;;;;;;;16.79;90.34;94305.70;1812796;77;20949;-58
2021/08/01 04:29:49;;;;;;;14.05;6.58;;;;;;;16.88;90.58;94306.90;1812294;77;20988;-58
2021/08/01 04:32:15;;;;;;;12.23;6.40;;;;;;;16.98;90.33;94304.80;1812832;77;21028;-57
2021/08/01 04:34:43;;;;;;;9.23;6.20;;;;;;;17.01;89.64;94303.02;1787735;79;43203;-57
2021/08/01 04:37:10;;;;;;;8.10;5.95;;;;;;;16.98;89.56;94298.46;1812978;78;20953;-56
2021/08/01 04:39:37;;;;;;;9.38;6.58;;;;;;;17.02;89.78;94303.15;1812837;79;20985;-55
2021/08/01 04:42:04;;;;;;;8.48;6.72;;;;;;;17.10;89.63;94302.82;1812529;78;21124;-56
2021/08/01 04:44:32;;;;;;;10.00;7.40;;;;;;;17.11;89.20;94303.69;1812265;79;20933;-56
2021/08/01 04:46:59;;;;;;;22.52;6.78;;;;;;;17.07;89.27;94301.05;1812650;79;20989;-56
2021/08/01 04:49:26;;;;;;;10.95;6.12;;;;;;;17.08;89.26;94303.30;1812356;79;20933;-58
2021/08/01 04:51:53;;;;;;;7.80;6.20;;;;;;;17.18;89.76;94302.45;1812743;79;21675;-58
2021/08/01 04:54:19;;;;;;;9.28;7.53;;;;;;;17.31;89.77;94309.07;1812493;79;21102;-58
2021/08/01 04:56:46;;;;;;;9.43;8.43;;;;;;;17.44;89.82;94307.27;1812556;79;20985;-58
2021/08/01 04:59:13;;;;;;;9.13;7.22;;;;;;;17.57;89.92;94300.58;1812921;79;20937;-58
2021/08/01 05:01:41;;;;;;;10.25;7.35;;;;;;;17.67;89.52;94297.70;1813551;78;20981;-56
2021/08/01 05:04:09;;;;;;;7.70;6.90;;;;;;;17.77;89.38;94301.75;1812608;79;20981;-57
2021/08/01 05:06:36;;;;;;;6.83;6.12;;;;;;;17.88;89.13;94289.25;1812759;78;21403;-56
2021/08/01 05:09:02;;;;;;;11.43;7.55;;;;;;;17.95;88.96;94292.29;1812450;79;21378;-57
2021/08/01 05:11:29;;;;;;;12.78;7.55;;;;;;;18.02;88.83;94294.56;1812548;77;21028;-57
2021/08/01 05:13:56;;;;;;;11.40;7.75;;;;;;;18.13;88.68;94291.14;1812451;77;21079;-57
2021/08/01 05:16:23;;;;;;;10.30;7.28;;;;;;;18.22;87.85;94295.08;1813243;79;20989;-57
2021/08/01 05:18:50;;;;;;;11.63;6.75;;;;;;;18.33;87.64;94297.13;1813155;79;21808;-57
2021/08/01 05:21:22;;;;;;;7.67;6.87;;;;;;;18.47;87.05;94302.41;1812603;79;20997;-57
2021/08/01 05:23:48;;;;;;;12.23;7.30;;;;;;;18.49;85.75;94301.27;1812827;79;21040;-57
2021/08/01 05:26:17;;;;;;;13.20;7.58;;;;;;;18.50;85.32;94300.00;1812763;79;21000;-58
2021/08/01 05:28:44;;;;;;;17.17;7.85;;;;;;;18.54;85.13;94304.70;1812886;79;21422;-57
2021/08/01 05:31:10;;;;;;;10.85;7.83;;;;;;;18.62;85.24;94309.88;1812599;79;21136;-57
2021/08/01 05:33:37;;;;;;;12.30;6.60;;;;;;;18.73;85.08;94315.44;1812524;79;20965;-58
2021/08/01 05:36:09;;;;;;;7.60;6.78;;;;;;;18.84;84.85;94319.58;1812912;79;20969;-57
2021/08/01 05:38:37;;;;;;;9.05;7.45;;;;;;;18.97;84.24;94321.84;1812933;79;20958;-56
2021/08/01 05:41:04;;;;;;;8.33;7.12;;;;;;;19.09;84.04;94322.69;1812710;78;20957;-56
2021/08/01 05:43:31;;;;;;;8.13;6.58;;;;;;;19.19;83.62;94317.61;1813784;78;21137;-58
2021/08/01 05:45:58;;;;;;;8.40;6.55;;;;;;;19.30;83.00;94311.97;1812696;79;20976;-57
2021/08/01 05:48:24;;;;;;;6.55;5.70;;;;;;;19.38;82.58;94306.73;1812537;79;21402;-58
2021/08/01 05:50:51;;;;;;;10.38;6.83;;;;;;;19.47;82.25;94305.06;1812534;77;20969;-58
2021/08/01 05:53:21;;;;;;;8.08;7.28;;;;;;;19.57;81.68;94301.33;1808743;78;20986;-57
2021/08/01 05:55:48;;;;;;;8.55;7.28;;;;;;;19.67;81.54;94318.65;1790029;80;21138;-57
2021/08/01 05:58:15;;;;;;;7.42;6.47;;;;;;;19.78;81.03;94299.68;1789735;80;20949;-58
2021/08/01 06:00:41;;;;;;;7.75;6.10;;;;;;;19.87;80.86;94290.35;1789809;80;21034;-56
2021/08/01 06:03:09;;;;;;;8.48;7.58;;;;;;;19.94;80.39;94294.63;1789687;79;20993;-58
2021/08/01 06:05:36;;;;;;;11.85;7.15;;;;;;;20.02;79.66;94290.02;1789540;80;21529;-57
2021/08/01 06:08:03;;;;;;;8.08;7.22;;;;;;;20.06;79.30;94296.84;1790206;80;21136;-58
2021/08/01 06:10:30;;;;;;;9.90;7.75;;;;;;;20.16;78.65;94288.27;1789487;80;20986;-59
2021/08/01 06:12:56;;;;;;;9.40;6.70;;;;;;;20.24;78.24;94280.83;1789670;80;21069;-58
2021/08/01 06:15:23;;;;;;;7.58;6.35;;;;;;;20.29;78.11;94283.59;1790241;80;20939;-56
2021/08/01 06:17:49;;;;;;;10.05;8.68;;;;;;;20.35;78.00;94268.91;1789852;80;20994;-57
2021/08/01 06:20:17;;;;;;;11.03;9.35;;;;;;;20.45;77.93;94270.73;1789873;79;21135;-56
2021/08/01 06:22:44;;;;;;;7.53;6.60;;;;;;;20.51;77.52;94270.03;1789801;79;20934;-56
2021/08/01 06:25:11;;;;;;;8.30;7.40;;;;;;;20.57;77.28;94282.68;1789593;80;20973;-57
2021/08/01 06:27:38;;;;;;;13.25;7.50;;;;;;;20.62;76.72;94274.12;1790335;79;21460;-57
2021/08/01 06:30:07;;;;;;;13.38;7.12;;;;;;;20.63;76.47;94271.45;1790123;80;21035;-57
2021/08/01 06:32:34;;;;;;;8.65;6.12;;;;;;;20.65;76.39;94272.45;1790008;80;21099;-61
2021/08/01 06:35:00;;;;;;;8.40;7.50;;;;;;;20.70;76.01;94265.30;1790898;80;21451;-56
2021/08/01 06:37:28;;;;;;;8.55;6.95;;;;;;;20.68;75.88;94257.42;1790536;80;21035;-57
2021/08/01 06:39:55;;;;;;;16.45;7.12;;;;;;;20.67;75.89;94260.10;1793931;78;20936;-57
2021/08/01 06:42:22;;;;;;;10.58;6.53;;;;;;;20.68;75.72;94256.02;1822789;78;20934;-57
2021/08/01 06:44:48;;;;;;;7.17;6.42;;;;;;;20.77;75.65;94247.92;1823020;78;21184;-57
2021/08/01 06:47:15;;;;;;;8.48;6.17;;;;;;;20.87;74.87;94256.86;1822704;78;21078;-58
2021/08/01 06:49:41;;;;;;;8.15;6.95;;;;;;;20.95;74.29;94251.44;1822658;78;20978;-57
2021/08/01 06:52:08;;;;;;;9.55;8.08;;;;;;;21.05;73.87;94245.58;1822366;78;21045;-57
2021/08/01 06:54:35;;;;;;;8.20;6.67;;;;;;;21.19;74.22;94252.80;1823286;78;20915;-57
2021/08/01 06:57:03;;;;;;;8.15;7.35;;;;;;;21.35;74.04;94251.83;1823454;78;21128;-57
2021/08/01 06:59:29;;;;;;;9.85;6.90;;;;;;;21.53;73.96;94253.87;1823436;78;20954;-57
2021/08/01 07:01:57;;;;;;;10.95;7.87;;;;;;;21.70;73.33;94254.44;1823357;78;20946;-57
2021/08/01 07:04:23;;;;;;;9.38;6.95;;;;;;;21.82;72.32;94263.53;1823709;78;21062;-57
2021/08/01 07:06:51;;;;;;;7.65;6.37;;;;;;;21.87;71.68;94259.89;1823492;78;20926;-57
2021/08/01 07:09:19;;;;;;;12.58;8.40;;;;;;;21.93;71.29;94254.98;1805083;78;21432;-58
2021/08/01 07:11:45;;;;;;;10.60;6.80;;;;;;;21.98;70.92;94242.92;1790854;80;21133;-58
2021/08/01 07:14:12;;;;;;;6.87;6.15;;;;;;;22.05;70.84;94233.26;1790971;80;21058;-57
2021/08/01 07:16:44;;;;;;;7.50;6.67;;;;;;;22.19;70.14;94233.41;1790982;80;21034;-57
2021/08/01 07:19:11;;;;;;;6.60;5.65;;;;;;;22.24;69.57;94224.16;1791282;80;20991;-58
2021/08/01 07:21:39;;;;;;;7.20;6.50;;;;;;;22.34;69.62;94230.11;1790871;80;21149;-58
2021/08/01 07:24:06;;;;;;;9.25;6.55;;;;;;;22.43;69.30;94228.30;1790916;80;21380;-58
2021/08/01 07:26:33;;;;;;;10.53;6.05;;;;;;;22.54;68.22;94224.69;1790897;80;20940;-57
2021/08/01 07:29:00;;;;;;;7.70;5.72;;;;;;;22.64;67.57;94229.23;1790734;80;21098;-57
2021/08/01 07:31:28;;;;;;;10.28;7.83;;;;;;;22.75;66.87;94231.17;1790788;80;20987;-57
2021/08/01 07:33:54;;;;;;;6.67;5.62;;;;;;;22.88;65.80;94220.59;1790728;80;21856;-57
2021/08/01 07:36:22;;;;;;;7.08;5.55;;;;;;;22.99;64.97;94224.60;1790691;80;21026;-58
2021/08/01 07:38:50;;;;;;;6.25;5.40;;;;;;;23.08;63.49;94223.52;1790770;80;20980;-58
2021/08/01 07:41:16;;;;;;;9.08;6.55;;;;;;;23.17;62.11;94220.95;1791007;80;21085;-60
2021/08/01 07:43:43;;;;;;;8.18;6.28;;;;;;;23.25;62.07;94226.00;1791050;80;20948;-58
2021/08/01 07:46:10;;;;;;;8.03;6.10;;;;;;;23.32;61.44;94220.48;1790918;80;21140;-58
2021/08/01 07:48:38;;;;;;;6.35;5.67;;;;;;;23.41;61.39;94225.64;1790715;80;21579;-58
2021/08/01 07:51:05;;;;;;;6.95;5.78;;;;;;;23.51;62.27;94207.05;1789280;80;21045;-58
2021/08/01 07:53:32;;;;;;;7.75;6.03;;;;;;;23.62;63.19;94201.20;1780928;80;21145;-57
2021/08/01 07:55:58;;;;;;;8.15;5.78;;;;;;;23.76;63.40;94202.64;1758143;81;21083;-58
2021/08/01 07:58:25;;;;;;;6.17;5.58;;;;;;;23.89;62.76;94199.83;1789715;78;21801;-57
2021/08/01 08:00:52;;;;;;;6.45;5.85;;;;;;;24.05;63.05;94198.67;1769665;81;21412;-57
2021/08/01 08:03:19;;;;;;;6.47;5.75;;;;;;;24.17;63.18;94194.30;1757986;81;21081;-57
2021/08/01 08:05:46;;;;;;;6.20;5.22;;;;;;;24.27;63.10;94186.88;1789221;80;20910;-58
2021/08/01 08:08:14;;;;;;;10.20;5.45;;;;;;;24.36;61.49;94187.14;1769289;81;20935;-57
2021/08/01 08:10:42;;;;;;;15.05;5.83;;;;;;;24.48;61.84;94186.97;1757920;81;21040;-57
2021/08/01 08:13:09;;;;;;;9.45;6.03;;;;;;;24.61;61.95;94187.55;1788986;80;21008;-57
2021/08/01 08:15:37;;;;;;;6.58;5.87;;;;;;;24.73;61.65;94193.00;1769482;80;21011;-58
2021/08/01 08:18:06;;;;;;;6.42;5.62;;;;;;;24.89;61.31;94192.53;1758287;81;20993;-58
2021/08/01 08:20:32;;;;;;;5.85;5.30;;;;;;;24.99;59.79;94201.22;1789322;79;21509;-58
2021/08/01 08:22:59;;;;;;;5.65;4.72;;;;;;;25.11;60.23;94197.53;1769435;81;21722;-57
2021/08/01 08:25:26;;;;;;;8.45;6.03;;;;;;;25.24;59.52;94198.09;1757824;81;21126;-59
2021/08/01 08:27:53;;;;;;;6.60;5.95;;;;;;;25.28;58.88;94197.84;1789258;80;21161;-57
2021/08/01 08:30:20;;;;;;;6.33;5.60;;;;;;;25.37;59.49;94191.70;1769188;80;20967;-58
2021/08/01 08:32:47;;;;;;;5.87;5.33;;;;;;;25.48;58.54;94188.53;1757991;81;21088;-58
2021/08/01 08:35:15;;;;;;;8.53;5.58;;;;;;;25.55;58.25;94182.20;1820416;78;21082;-59
2021/08/01 08:37:49;;;;;;;9.60;5.78;;;;;;;25.67;58.32;94169.25;1831719;77;21128;-58
2021/08/01 08:40:16;;;;;;;7.12;5.30;;;;;;;25.80;58.14;94173.34;1819096;77;20934;-59
2021/08/01 08:42:45;;;;;;;8.03;5.10;;;;;;;25.91;57.05;94166.62;1763877;81;20984;-58
2021/08/01 08:45:16;;;;;;;6.05;5.10;;;;;;;26.01;57.35;94163.45;1763902;81;21095;-57
2021/08/01 08:47:44;;;;;;;6.28;4.92;;;;;;;26.11;56.79;94160.16;1782835;79;21114;-58
2021/08/01 08:50:13;;;;;;;5.20;4.70;;;;;;;26.20;55.56;94155.39;1782712;80;21029;-57
2021/08/01 08:52:43;;;;;;;8.23;6.30;;;;;;;26.28;56.96;94157.55;1782797;80;21025;-57
2021/08/01 08:55:15;;;;;;;5.40;4.53;;;;;;;26.35;54.95;94158.87;1785500;80;21130;-58
2021/08/01 08:57:45;;;;;;;9.33;4.85;;;;;;;26.46;53.36;94155.68;1765058;81;20938;-58
2021/08/01 09:00:14;;;;;;;5.72;5.05;;;;;;;26.55;54.92;94148.08;1764831;81;21827;-60
2021/08/01 09:02:40;;;;;;;6.15;5.55;;;;;;;26.66;55.54;94139.97;1764480;81;21051;-58
2021/08/01 09:05:09;;;;;;;9.00;4.67;;;;;;;26.75;55.12;94140.81;1764424;81;20988;-58
2021/08/01 09:07:40;;;;;;;5.70;5.03;;;;;;;26.83;53.86;94139.39;1786111;79;20938;-59
2021/08/01 09:10:09;;;;;;;7.50;4.62;;;;;;;26.91;55.21;94132.41;1756245;81;21588;-58
2021/08/01 09:12:42;;;;;;;6.80;5.08;;;;;;;26.99;54.47;94126.06;1785579;80;21025;-60
2021/08/01 09:15:27;;;;;;;5.50;4.75;;;;;;;27.07;53.36;94121.13;1761778;80;20982;-58
2021/08/01 09:17:54;;;;;;;5.62;5.03;;;;;;;27.17;53.38;94124.91;1813500;78;21354;-57
2021/08/01 09:20:29;;;;;;;7.17;4.85;;;;;;;27.29;54.02;94129.48;1826723;78;20993;-59
2021/08/01 09:23:07;;;;;;;5.30;4.80;;;;;;;27.36;53.29;94120.97;1797532;79;20947;-59
2021/08/01 09:25:38;;;;;;;6.65;4.53;;;;;;;27.50;53.19;94127.12;1825924;78;21084;-59
2021/08/01 09:28:21;;;;;;;5.45;4.83;;;;;;;27.62;52.84;94123.28;1797155;79;21568;-57
2021/08/01 09:31:02;;;;;;;6.47;4.90;;;;;;;27.70;52.30;94122.59;1826232;78;21064;-59
2021/08/01 09:33:44;;;;;;;5.37;4.65;;;;;;;27.78;52.98;94121.91;1826266;78;21053;-58
2021/08/01 09:36:14;;;;;;;5.75;5.00;;;;;;;27.84;52.59;94109.73;1797820;79;20942;-57
2021/08/01 09:38:56;;;;;;;6.22;4.53;;;;;;;27.93;51.31;94109.09;1826454;78;21118;-58
2021/08/01 09:41:33;;;;;;;5.40;4.63;;;;;;;28.05;51.55;94107.31;1797698;78;20938;-58
2021/08/01 09:44:07;;;;;;;5.67;4.78;;;;;;;28.14;49.64;94109.50;1797675;79;21506;-58
2021/08/01 09:46:46;;;;;;;5.17;4.67;;;;;;;28.22;49.14;94099.63;1797496;78;20951;-58
2021/08/01 09:49:15;;;;;;;8.98;4.87;;;;;;;28.34;49.30;94095.69;1797582;79;20978;-60
2021/08/01 09:51:50;;;;;;;8.45;4.55;;;;;;;28.42;49.91;94099.22;1797365;79;21771;-58
2021/08/01 09:54:18;;;;;;;5.58;4.30;;;;;;;28.49;50.57;94095.56;1810467;78;21022;-59
2021/08/01 09:56:57;;;;;;;6.85;5.20;;;;;;;28.58;50.52;94102.00;1802695;78;21098;-61
2021/08/01 09:59:27;;;;;;;5.50;4.90;;;;;;;28.62;49.41;94096.67;1784965;79;20994;-57
2021/08/01 10:02:00;;;;;;;5.03;4.53;;;;;;;28.67;51.13;94098.50;1777293;80;21071;-59
2021/08/01 10:04:45;;;;;;;6.40;4.90;;;;;;;28.75;49.84;94090.02;1777531;80;26189;-58
2021/08/01 10:07:15;;;;;;;7.20;5.05;;;;;;;28.83;49.23;94088.53;1754291;81;21044;-59
2021/08/01 10:09:51;;;;;;;8.83;8.03;;;;;;;28.93;48.44;94085.16;1757791;80;21052;-60
2021/08/01 10:12:14;;;;;;;7.90;5.05;;;;;;;29.06;48.40;94084.80;1766824;81;21419;-57
2021/08/01 10:14:43;;;;;;;4.55;4.15;;;;;;;29.21;49.15;94086.81;1754625;81;21419;-58
2021/08/01 10:17:12;;;;;;;7.97;4.80;;;;;;;29.33;48.95;94087.05;1786163;80;20930;-57
2021/08/01 10:19:39;;;;;;;4.65;4.25;;;;;;;29.47;49.25;94085.39;1768994;81;21070;-61
2021/08/01 10:22:06;;;;;;;5.35;4.45;;;;;;;29.66;49.58;94089.08;1754869;81;20973;-58
2021/08/01 10:24:45;;;;;;;6.08;5.00;;;;;;;29.86;49.25;94085.01;1786060;80;21402;-58
2021/08/01 10:27:13;;;;;;;7.22;5.17;;;;;;;30.09;46.89;94091.88;1769032;81;20987;-58
2021/08/01 10:29:50;;;;;;;5.12;4.62;;;;;;;30.35;46.42;94084.66;1754641;81;21828;-59
2021/08/01 10:32:25;;;;;;;6.33;4.45;;;;;;;30.57;47.30;94071.53;1786124;80;20997;-58
2021/08/01 10:35:15;;;;;;;6.72;4.80;;;;;;;30.85;46.11;94069.39;1768973;81;21407;-60
2021/08/01 10:37:58;;;;;;;8.35;5.35;;;;;;;31.14;44.95;94063.09;1747164;81;20953;-58
2021/08/01 10:40:26;;;;;;;4.83;4.37;;;;;;;31.37;44.19;94059.11;1799910;78;20922;-59
2021/08/01 10:43:03;;;;;;;6.22;4.55;;;;;;;31.64;45.08;94063.19;1793849;78;21107;-58
2021/08/01 10:45:32;;;;;;;3.90;3.50;;;;;;;31.91;41.82;94061.66;1777365;80;20919;-60
2021/08/01 10:47:58;;;;;;;8.05;3.95;;;;;;;32.19;42.66;94057.99;1777807;80;20987;-59
2021/08/01 10:50:28;;;;;;;3.83;3.52;;;;;;;32.37;42.01;94055.72;1754963;81;21452;-58
2021/08/01 10:53:25;;;;;;;5.92;4.10;;;;;;;32.60;40.24;94052.30;1785902;79;21025;-58
2021/08/01 10:56:26;;;;;;;5.47;4.58;;;;;;;32.83;40.15;94054.67;1769088;81;21146;-58
2021/08/01 10:58:53;;;;;;;24.60;6.80;;;;;;;33.07;40.68;94043.45;1755173;81;20965;-60
2021/08/01 11:01:20;;;;;;;5.03;3.65;;;;;;;33.33;37.16;94037.34;1786173;80;21111;-60
2021/08/01 11:03:48;;;;;;;4.00;3.70;;;;;;;33.50;36.97;94039.89;1769120;81;21035;-58
2021/08/01 11:06:43;;;;;;;6.50;4.30;;;;;;;33.76;36.08;94029.51;1703893;81;21464;-59
2021/08/01 11:09:16;;;;;;;3.98;3.67;;;;;;;33.98;35.47;94033.77;1786252;80;21053;-58
2021/08/01 11:11:45;;;;;;;4.47;4.08;;;;;;;34.42;35.69;94027.30;1755007;81;20914;-59
2021/08/01 11:14:48;;;;;;;4.40;3.85;;;;;;;34.81;35.34;94025.41;1769172;81;21095;-59
2021/08/01 11:17:19;;;;;;;6.67;3.92;;;;;;;35.26;35.21;94023.08;1755434;81;20949;-59
2021/08/01 11:19:46;;;;;;;7.15;3.67;;;;;;;35.58;33.05;94017.08;1786626;80;20926;-59
2021/08/01 11:22:43;;;;;;;4.67;3.62;;;;;;;35.74;32.74;94013.73;1769314;81;21633;-60
2021/08/01 11:25:28;;;;;;;5.00;3.60;;;;;;;36.07;33.48;94008.41;1756913;80;21006;-59
2021/08/01 11:28:22;;;;;;;5.37;3.67;;;;;;;36.42;33.15;94011.08;1753082;81;21442;-58
2021/08/01 11:31:03;;;;;;;5.05;3.50;;;;;;;36.73;33.06;94011.33;1734012;82;20987;-58
2021/08/01 11:33:34;;;;;;;4.92;3.02;;;;;;;37.05;31.01;94012.28;1752893;81;20945;-59
2021/08/01 11:36:16;;;;;;;3.95;3.35;;;;;;;37.36;30.20;94005.98;1734117;82;21233;-58
2021/08/01 11:38:56;;;;;;;4.97;3.33;;;;;;;37.65;31.06;94009.58;1753049;81;20950;-58
2021/08/01 11:41:33;;;;;;;4.12;3.35;;;;;;;37.80;30.80;94012.50;1769876;80;21547;-58
2021/08/01 11:44:06;;;;;;;3.40;3.08;;;;;;;37.84;29.32;94006.95;1783973;80;21047;-59
2021/08/01 11:46:59;;;;;;;3.45;3.15;;;;;;;38.04;28.58;94008.64;1784065;80;20940;-57